createdAt,value
2019-02-11T00:01:18.410Z,145.40
2019-02-11T00:04:24.282Z,162.90
2019-02-11T00:07:30.068Z,140.53
2019-02-11T00:10:35.862Z,139.63
2019-02-11T00:13:41.635Z,137.53
2019-02-11T00:16:47.487Z,123.00
2019-02-11T00:19:53.269Z,123.33
2019-02-11T00:22:59.097Z,146.10
2019-02-11T00:26:04.855Z,136.47
2019-02-11T00:29:10.639Z,129.93
2019-02-11T00:32:16.423Z,127.47
2019-02-11T00:35:22.197Z,116.57
2019-02-11T00:38:28.002Z,110.07
2019-02-11T00:41:33.796Z,119.77
2019-02-11T00:44:39.582Z,111.57
2019-02-11T00:47:45.329Z,116.43
2019-02-11T00:50:51.135Z,112.27
2019-02-11T00:53:56.909Z,118.03
2019-02-11T00:57:02.685Z,116.53
2019-02-11T01:00:10.593Z,115.87
2019-02-11T01:03:16.372Z,121.03
2019-02-11T01:06:22.176Z,121.30
2019-02-11T01:09:27.925Z,117.63
2019-02-11T01:12:33.718Z,128.53
2019-02-11T01:15:39.480Z,130.73
2019-02-11T01:18:45.254Z,118.20
2019-02-11T01:21:51.012Z,124.10
2019-02-11T01:24:56.798Z,110.57
2019-02-11T01:28:02.555Z,102.83
2019-02-11T01:31:08.322Z,105.13
2019-02-11T01:34:14.059Z,104.50
2019-02-11T01:37:19.841Z,100.20
2019-02-11T01:40:25.598Z,97.67
2019-02-11T01:43:36.138Z,97.77
2019-02-11T01:46:38.789Z,107.07
2019-02-11T01:49:44.682Z,103.50
2019-02-11T01:52:50.444Z,115.00
2019-02-11T01:55:56.213Z,121.10
2019-02-11T01:59:01.976Z,138.53
2019-02-11T02:02:07.763Z,141.60
2019-02-11T02:05:13.599Z,136.23
2019-02-11T02:08:19.447Z,129.23
2019-02-11T02:11:25.202Z,130.30
2019-02-11T02:14:31.132Z,136.17
2019-02-11T02:17:36.904Z,146.07
2019-02-11T02:20:42.730Z,133.07
2019-02-11T02:23:48.492Z,135.43
2019-02-11T02:26:54.256Z,131.40
2019-02-11T02:30:00.035Z,151.27
2019-02-11T02:33:05.939Z,155.97
2019-02-11T02:36:11.730Z,170.20
2019-02-11T02:39:17.507Z,158.97
2019-02-11T02:42:23.273Z,149.57
2019-02-11T02:45:29.256Z,151.00
2019-02-11T02:48:35.009Z,136.83
2019-02-11T02:51:40.777Z,171.63
2019-02-11T02:54:46.861Z,131.80
2019-02-11T02:57:52.672Z,135.93
2019-02-11T03:00:58.450Z,141.77
2019-02-11T03:04:04.218Z,137.13
2019-02-11T03:07:09.979Z,136.20
2019-02-11T03:10:15.915Z,144.87
2019-02-11T03:13:21.649Z,137.57
2019-02-11T03:16:27.422Z,116.80
2019-02-11T03:19:33.179Z,124.57
2019-02-11T03:22:38.973Z,126.00
2019-02-11T03:25:44.727Z,118.90
2019-02-11T03:28:50.483Z,117.33
2019-02-11T03:31:59.736Z,115.80
2019-02-11T03:35:03.705Z,113.80
2019-02-11T03:38:09.461Z,110.33
2019-02-11T03:41:15.258Z,115.30
2019-02-11T03:44:21.049Z,98.83
2019-02-11T03:47:26.874Z,104.03
2019-02-11T03:50:32.637Z,101.73
2019-02-11T03:53:38.404Z,99.07
2019-02-11T03:56:44.357Z,103.90
2019-02-11T03:59:50.237Z,104.27
2019-02-11T04:02:56.309Z,124.47
2019-02-11T04:06:02.058Z,102.00
2019-02-11T04:09:08.412Z,109.50
2019-02-11T04:12:14.187Z,119.20
2019-02-11T04:15:19.971Z,108.17
2019-02-11T04:18:25.773Z,112.50
2019-02-11T04:21:31.542Z,114.47
2019-02-11T04:24:37.502Z,114.50
2019-02-11T04:27:43.255Z,130.40
2019-02-11T04:30:49.060Z,131.40
2019-02-11T04:33:54.881Z,130.47
2019-02-11T04:37:00.636Z,150.83
2019-02-11T04:40:07.325Z,134.20
2019-02-11T04:43:13.110Z,129.97
2019-02-11T04:46:18.879Z,127.73
2019-02-11T04:49:24.646Z,130.97
2019-02-11T04:52:30.406Z,128.20
2019-02-11T04:55:36.210Z,141.70
2019-02-11T04:58:41.964Z,133.67
2019-02-11T05:01:47.715Z,130.93
2019-02-11T05:04:53.483Z,129.23
2019-02-11T05:07:59.270Z,126.13
2019-02-11T05:11:05.145Z,145.17
2019-02-11T05:14:10.914Z,146.93
2019-02-11T05:17:16.683Z,153.10
2019-02-11T05:20:22.526Z,179.90
2019-02-11T05:23:28.284Z,269.60
2019-02-11T05:26:34.057Z,394.50
2019-02-11T05:29:39.821Z,438.37
2019-02-11T05:32:45.626Z,407.37
2019-02-11T05:35:51.377Z,298.43
2019-02-11T05:38:57.231Z,271.80
2019-02-11T05:42:02.995Z,259.63
2019-02-11T05:45:09.014Z,226.43
2019-02-11T05:48:14.771Z,234.50
2019-02-11T05:51:20.554Z,388.10
2019-02-11T05:54:26.319Z,362.33
2019-02-11T05:57:32.124Z,333.67
2019-02-11T06:00:37.890Z,254.47
2019-02-11T06:03:43.660Z,194.20
2019-02-11T06:06:49.442Z,185.90
2019-02-11T06:09:55.203Z,183.30
2019-02-11T06:13:00.955Z,173.70
2019-02-11T06:16:06.752Z,174.23
2019-02-11T06:19:12.479Z,168.13
2019-02-11T06:22:18.233Z,167.40
2019-02-11T06:25:23.994Z,162.63
2019-02-11T06:28:29.770Z,163.37
2019-02-11T06:31:35.645Z,167.87
2019-02-11T06:34:41.611Z,176.50
2019-02-11T06:37:47.382Z,172.63
2019-02-11T06:40:53.181Z,196.17
2019-02-11T06:43:58.938Z,187.50
2019-02-11T06:47:04.705Z,180.00
2019-02-11T06:50:11.456Z,161.90
2019-02-11T06:53:18.259Z,159.27
2019-02-11T06:56:24.044Z,160.43
2019-02-11T06:59:31.043Z,153.60
2019-02-11T07:02:36.804Z,153.87
2019-02-11T07:05:42.610Z,159.60
2019-02-11T07:08:48.381Z,166.03
2019-02-11T07:11:54.151Z,162.00
2019-02-11T07:14:59.910Z,182.07
2019-02-11T07:18:05.702Z,184.20
2019-02-11T07:21:11.478Z,168.07
2019-02-11T07:24:17.309Z,163.40
2019-02-11T07:27:23.222Z,178.67
2019-02-11T07:30:29.041Z,173.60
2019-02-11T07:33:34.936Z,162.90
2019-02-11T07:36:40.717Z,188.10
2019-02-11T07:39:46.508Z,203.63
2019-02-11T07:42:57.538Z,214.30
2019-02-11T07:46:31.515Z,205.53
2019-02-11T07:49:37.439Z,207.70
2019-02-11T07:52:43.309Z,187.07
2019-02-11T07:55:49.119Z,197.97
2019-02-11T07:58:54.906Z,208.40
2019-02-11T08:02:00.687Z,179.43
2019-02-11T08:05:07.039Z,185.37
2019-02-11T08:08:12.873Z,191.93
2019-02-11T08:11:18.770Z,179.97
2019-02-11T08:14:24.730Z,181.97
2019-02-11T08:17:30.647Z,159.93
2019-02-11T08:20:36.721Z,153.77
2019-02-11T08:23:42.562Z,157.23
2019-02-11T08:26:48.376Z,159.60
2019-02-11T08:29:55.161Z,151.40
2019-02-11T08:33:01.014Z,135.17
2019-02-11T08:36:06.803Z,132.77
2019-02-11T08:39:12.832Z,132.70
2019-02-11T08:42:18.609Z,119.80
2019-02-11T08:45:24.403Z,114.27
2019-02-11T08:48:30.205Z,108.47
2019-02-11T08:51:36.035Z,118.97
2019-02-11T08:54:41.847Z,118.43
2019-02-11T08:57:47.714Z,113.67
2019-02-11T09:00:53.615Z,113.57
2019-02-11T09:03:59.495Z,112.20
2019-02-11T09:07:05.361Z,110.70
2019-02-11T09:10:11.835Z,112.40
2019-02-11T09:13:18.728Z,119.17
2019-02-11T09:16:24.707Z,114.17
2019-02-11T09:19:30.531Z,110.40
2019-02-11T09:22:36.317Z,115.07
2019-02-11T09:25:42.149Z,133.00
2019-02-11T09:28:49.080Z,143.70
2019-02-11T09:31:54.861Z,126.13
2019-02-11T09:35:00.644Z,128.07
2019-02-11T09:38:06.590Z,130.53
2019-02-11T09:41:12.487Z,131.30
2019-02-11T09:44:18.420Z,131.67
2019-02-11T09:47:24.204Z,131.43
2019-02-11T09:50:39.859Z,128.70
2019-02-11T09:53:45.782Z,127.93
2019-02-11T09:56:51.670Z,145.67
2019-02-11T09:59:57.524Z,151.23
2019-02-11T10:03:03.585Z,143.37
2019-02-11T10:06:09.359Z,142.87
2019-02-11T10:09:15.250Z,143.40
2019-02-11T10:12:21.553Z,150.57
2019-02-11T10:15:27.495Z,137.40
2019-02-11T10:18:33.277Z,135.63
2019-02-11T10:21:39.160Z,130.33
2019-02-11T10:24:44.984Z,124.30
2019-02-11T10:27:50.756Z,108.43
2019-02-11T10:30:57.061Z,105.57
2019-02-11T10:34:03.878Z,99.47
2019-02-11T10:37:09.833Z,94.53
2019-02-11T10:40:15.974Z,96.20
2019-02-11T10:43:21.900Z,93.70
2019-02-11T10:46:27.866Z,95.60
2019-02-11T10:49:33.639Z,94.93
2019-02-11T10:52:40.426Z,89.53
2019-02-11T10:55:46.385Z,97.30
2019-02-11T10:58:52.238Z,105.07
2019-02-11T11:01:58.161Z,84.80
2019-02-11T11:05:04.115Z,86.10
2019-02-11T11:08:10.093Z,88.27
2019-02-11T11:11:16.007Z,74.63
2019-02-11T11:14:21.898Z,69.60
2019-02-11T11:17:27.823Z,75.53
2019-02-11T11:20:33.816Z,91.27
2019-02-11T11:23:39.604Z,89.63
2019-02-11T11:26:45.461Z,79.77
2019-02-11T11:29:51.242Z,66.53
2019-02-11T11:32:57.065Z,69.70
2019-02-11T11:36:02.873Z,72.90
2019-02-11T11:39:18.322Z,69.10
2019-02-11T11:42:24.173Z,77.13
2019-02-11T11:45:30.005Z,69.27
2019-02-11T11:48:36.099Z,66.33
2019-02-11T11:51:41.880Z,67.53
2019-02-11T11:54:47.678Z,61.53
2019-02-11T11:57:53.574Z,68.90
2019-02-11T12:00:59.533Z,71.23
2019-02-11T12:04:06.676Z,70.30
2019-02-11T12:07:12.821Z,71.23
2019-02-11T12:10:20.124Z,73.03
2019-02-11T12:13:27.792Z,69.40
2019-02-11T12:16:34.697Z,69.17
2019-02-11T12:19:40.491Z,66.13
2019-02-11T12:22:46.812Z,66.07
2019-02-11T12:25:52.636Z,66.30
2019-02-11T12:28:58.437Z,64.67
2019-02-11T12:32:05.828Z,60.33
2019-02-11T12:35:12.607Z,66.43
2019-02-11T12:38:18.435Z,63.67
2019-02-11T12:41:24.334Z,65.57
2019-02-11T12:44:30.183Z,66.10
2019-02-11T12:47:35.970Z,63.80
2019-02-11T12:50:41.889Z,66.17
2019-02-11T12:53:48.076Z,65.37
2019-02-11T12:56:53.854Z,60.57
2019-02-11T12:59:59.656Z,57.27
2019-02-11T13:03:06.010Z,57.60
2019-02-11T13:06:11.832Z,56.30
2019-02-11T13:09:17.698Z,61.17
2019-02-11T13:12:23.563Z,55.90
2019-02-11T13:15:56.368Z,64.90
2019-02-11T13:18:39.400Z,64.17
2019-02-11T13:21:44.632Z,58.80
2019-02-11T13:24:50.404Z,59.10
2019-02-11T13:27:56.215Z,62.67
2019-02-11T13:31:02.217Z,92.33
2019-02-11T13:34:08.064Z,58.17
2019-02-11T13:37:13.977Z,63.70
2019-02-11T13:40:19.891Z,54.07
2019-02-11T13:43:25.763Z,56.17
2019-02-11T13:46:31.565Z,69.90
2019-02-11T13:49:37.346Z,66.70
2019-02-11T13:52:43.211Z,61.00
2019-02-11T13:55:49.287Z,56.50
2019-02-11T13:58:55.287Z,56.20
2019-02-11T14:02:01.136Z,65.70
2019-02-11T14:05:07.518Z,62.63
2019-02-11T14:08:13.795Z,57.67
2019-02-11T14:11:19.577Z,60.80
2019-02-11T14:14:31.796Z,60.33
2019-02-11T14:17:37.709Z,65.33
2019-02-11T14:20:44.048Z,64.77
2019-02-11T14:23:50.039Z,66.43
2019-02-11T14:26:55.817Z,67.63
2019-02-11T14:30:01.623Z,77.77
2019-02-11T14:33:08.260Z,68.43
2019-02-11T14:36:14.337Z,66.87
2019-02-11T14:39:20.389Z,75.47
2019-02-11T14:42:26.321Z,74.20
2019-02-11T14:45:32.230Z,76.20
2019-02-11T14:48:38.143Z,67.03
2019-02-11T14:51:44.986Z,62.50
2019-02-11T14:54:50.890Z,67.67
2019-02-11T14:57:56.718Z,64.13
2019-02-11T15:01:02.507Z,66.63
2019-02-11T15:04:08.316Z,81.37
2019-02-11T15:07:14.046Z,68.33
2019-02-11T15:10:19.979Z,67.80
2019-02-11T15:13:25.742Z,69.13
2019-02-11T15:16:31.637Z,64.13
2019-02-11T15:19:37.409Z,65.27
2019-02-11T15:22:43.219Z,59.73
2019-02-11T15:25:48.985Z,66.27
2019-02-11T15:28:54.893Z,67.13
2019-02-11T15:32:00.667Z,61.77
2019-02-11T15:35:06.575Z,64.33
2019-02-11T15:38:12.368Z,59.87
2019-02-11T15:41:18.143Z,65.87
2019-02-11T15:44:23.900Z,77.80
2019-02-11T15:47:29.685Z,62.23
2019-02-11T15:50:35.688Z,67.80
2019-02-11T15:53:41.600Z,65.37
2019-02-11T15:56:47.419Z,78.40
2019-02-11T15:59:53.174Z,81.53
2019-02-11T16:02:58.940Z,79.63
2019-02-11T16:06:10.215Z,96.27
2019-02-11T16:09:12.454Z,92.60
2019-02-11T16:12:18.256Z,96.80
2019-02-11T16:15:24.126Z,96.37
2019-02-11T16:18:30.000Z,110.80
2019-02-11T16:21:35.773Z,88.40
2019-02-11T16:24:41.646Z,100.67
2019-02-11T16:27:47.555Z,94.27
2019-02-11T16:30:53.325Z,109.67
2019-02-11T16:33:59.143Z,106.23
2019-02-11T16:37:05.020Z,123.33
2019-02-11T16:40:13.604Z,134.07
2019-02-11T16:43:20.417Z,120.33
2019-02-11T16:46:26.194Z,135.70
2019-02-11T16:49:31.984Z,122.27
2019-02-11T16:52:37.882Z,137.47
2019-02-11T16:55:43.775Z,131.80
2019-02-11T16:58:49.662Z,189.73
2019-02-11T17:01:55.459Z,194.87
2019-02-11T17:05:01.241Z,152.83
2019-02-11T17:08:07.090Z,138.10
2019-02-11T17:11:12.862Z,176.07
2019-02-11T17:14:20.324Z,194.40
2019-02-11T17:17:26.119Z,211.80
2019-02-11T17:20:31.915Z,194.27
2019-02-11T17:23:37.823Z,164.83
2019-02-11T17:26:43.693Z,163.83
2019-02-11T17:29:49.644Z,165.73
2019-02-11T17:32:55.568Z,178.53
2019-02-11T17:36:01.371Z,192.43
2019-02-11T17:39:08.875Z,254.93
2019-02-11T17:42:14.898Z,188.50
2019-02-11T17:45:23.013Z,175.87
2019-02-11T17:48:28.904Z,154.80
2019-02-11T17:51:34.814Z,145.50
2019-02-11T17:54:40.647Z,118.87
2019-02-11T17:57:46.619Z,115.50
2019-02-11T18:00:56.205Z,108.13
2019-02-11T18:04:01.976Z,119.17
2019-02-11T18:07:08.331Z,107.23
2019-02-11T18:10:14.225Z,101.00
2019-02-11T18:13:20.004Z,96.47
2019-02-11T18:16:25.945Z,112.50
2019-02-11T18:19:31.759Z,101.57
2019-02-11T18:22:37.691Z,100.40
2019-02-11T18:25:43.525Z,108.07
2019-02-11T18:28:49.408Z,103.43
2019-02-11T18:31:55.228Z,123.90
2019-02-11T18:35:01.080Z,135.90
2019-02-11T18:38:06.926Z,131.73
2019-02-11T18:41:12.712Z,130.90
2019-02-11T18:44:18.697Z,127.80
2019-02-11T18:47:24.553Z,125.47
2019-02-11T18:50:30.430Z,139.10
2019-02-11T18:53:36.260Z,157.03
2019-02-11T18:56:42.156Z,151.23
2019-02-11T18:59:47.949Z,137.77
2019-02-11T19:02:54.127Z,137.80
2019-02-11T19:06:00.046Z,145.57
2019-02-11T19:09:08.732Z,147.27
2019-02-11T19:12:14.887Z,145.77
2019-02-11T19:15:20.861Z,143.73
2019-02-11T19:18:26.711Z,149.03
2019-02-11T19:21:33.458Z,143.87
2019-02-11T19:24:39.296Z,141.60
2019-02-11T19:27:45.076Z,133.27
2019-02-11T19:30:50.954Z,157.83
2019-02-11T19:33:56.813Z,154.13
2019-02-11T19:37:02.627Z,170.40
2019-02-11T19:40:10.225Z,186.93
2019-02-11T19:43:16.055Z,187.70
2019-02-11T19:46:22.221Z,187.53
2019-02-11T19:49:28.057Z,176.37
2019-02-11T19:52:33.952Z,181.70
2019-02-11T19:55:39.830Z,213.50
2019-02-11T19:58:45.709Z,201.73
2019-02-11T20:01:51.483Z,205.17
2019-02-11T20:04:57.284Z,203.53
2019-02-11T20:08:03.063Z,203.37
2019-02-11T20:11:08.936Z,196.43
2019-02-11T20:14:14.769Z,172.43
2019-02-11T20:17:20.523Z,182.13
2019-02-11T20:20:26.428Z,158.20
2019-02-11T20:23:32.177Z,149.03
2019-02-11T20:26:37.936Z,162.83
2019-02-11T20:29:43.700Z,160.57
2019-02-11T20:32:49.611Z,168.33
2019-02-11T20:35:55.431Z,184.67
2019-02-11T20:39:01.208Z,183.60
2019-02-11T20:42:08.615Z,172.00
2019-02-11T20:45:17.169Z,176.80
2019-02-11T20:48:22.978Z,177.70
2019-02-11T20:51:28.779Z,161.70
2019-02-11T20:54:34.569Z,157.43
2019-02-11T20:57:40.495Z,166.43
2019-02-11T21:00:46.363Z,156.03
2019-02-11T21:03:52.144Z,153.70
2019-02-11T21:06:57.918Z,147.40
2019-02-11T21:10:03.949Z,155.50
2019-02-11T21:13:09.825Z,152.57
2019-02-11T21:16:15.612Z,137.73
2019-02-11T21:19:21.391Z,157.47
2019-02-11T21:22:27.556Z,140.93
2019-02-11T21:25:33.431Z,140.07
2019-02-11T21:28:39.223Z,140.93
2019-02-11T21:31:45.146Z,135.07
2019-02-11T21:34:50.924Z,118.13
2019-02-11T21:37:56.709Z,118.67
2019-02-11T21:41:03.522Z,129.13
2019-02-11T21:44:09.306Z,140.37
2019-02-11T21:47:15.107Z,140.73
2019-02-11T21:50:26.276Z,130.90
2019-02-11T21:53:28.654Z,143.43
2019-02-11T21:56:34.409Z,125.13
2019-02-11T21:59:40.304Z,125.73
2019-02-11T22:02:46.132Z,128.27
2019-02-11T22:05:51.889Z,112.27
2019-02-11T22:08:57.735Z,120.83
2019-02-11T22:12:03.514Z,133.60
2019-02-11T22:15:10.041Z,130.43
2019-02-11T22:18:15.820Z,134.23
2019-02-11T22:21:21.639Z,115.87
2019-02-11T22:24:27.431Z,127.30
2019-02-11T22:27:33.300Z,123.43
2019-02-11T22:30:40.096Z,123.00
2019-02-11T22:33:45.852Z,124.27
2019-02-11T22:36:51.640Z,129.73
2019-02-11T22:39:57.515Z,128.33
2019-02-11T22:43:03.350Z,134.50
2019-02-11T22:46:09.134Z,126.60
2019-02-11T22:49:14.928Z,132.60
2019-02-11T22:52:20.689Z,125.93
2019-02-11T22:55:26.483Z,129.73
2019-02-11T22:58:33.236Z,130.10
2019-02-11T23:01:39.121Z,133.80
2019-02-11T23:04:44.899Z,140.30
2019-02-11T23:07:50.661Z,136.13
2019-02-11T23:10:56.417Z,140.67
2019-02-11T23:14:02.248Z,143.27
2019-02-11T23:17:08.002Z,145.43
2019-02-11T23:20:14.011Z,139.27
2019-02-11T23:23:19.781Z,133.73
2019-02-11T23:26:25.613Z,138.57
2019-02-11T23:29:31.378Z,140.53
2019-02-11T23:32:37.149Z,147.60
2019-02-11T23:35:43.036Z,144.40
2019-02-11T23:38:48.811Z,141.37
2019-02-11T23:41:54.569Z,146.53
2019-02-11T23:45:00.353Z,146.00
2019-02-11T23:48:06.243Z,130.17
2019-02-11T23:51:12.036Z,133.93
2019-02-11T23:54:17.812Z,130.00
2019-02-11T23:57:23.646Z,132.07
